Terminal Aerodrome Forecast
Issued by NWS Grand Rapids, MI

Home | Current Version | Previous Version | Text Only | Print | Product List | Glossary On
Versions: 1 2 3 4 5 6 7 8 9 10 11 12 13 14 15 16 17 18
891
FTUS43 KGRR 222340
TAFGRR
TAF
KGRR 222340Z 2300/2324 22010KT P6SM BKN070
     FM230300 20008KT P6SM VCSH OVC050
     FM231000 20006KT 5SM -SHRA BR OVC015
     FM231600 21008KT P6SM -RA OVC025=

USA.gov is the U.S. government's official web portal to all federal, state and local government web resources and services.